Hlavní strana
METAR-TAF:

METAR-TAF

Letiště :

Mezinárodní letiště Si-an Sien-jang

Si-an, Čína

zeměpisná šířka: 34-26N, zeměpisná délka: 108-45E, výška: 479 m

Aktuální stav počasí

Zpráva byla vytvořena před 1 hodinou a 0 minutami, v 22:00 UTC
vítr z různých směrů 2 kt
Teplota 19°C
Vlhkost vzduchu 100%
Tlak 1006 hPa
Viditelnost: 3000 m
Oblačno až skoro zataženo ve výšce 4000 ft
kouřmo

METAR: ZLXY 182200Z VRB01MPS 3000 BR BKN040 19/19 Q1006 NOSIG

Čas: 07:00 (23:00 UTC)

Předpověď počasí

Zpráva byla vytvořena před 7 hodinami a 40 minutami, v 15:20 UTC
Předpověď platná od 18 v 18 UTC do 19 v 18 UTC
Západojihozápadní vítr 6 kt
Viditelnost: 3000 m
kouřmo

TAF: ZLXY 181520Z 1818/1918 24003MPS 3000 BR NSC TX31/1908Z TN17/1823Z

Stav a předpovědi počasí z více než 4 000 letišť (zprávy METAR a TAF).

Červené a žluté tečky na mapě představují dostupné meteorologické stanice.

Když kurzor umístíte na tečku, zobrazí se název stanice.

Pak kliknutím zobrazíte stav a předpověď počasí.

Chcete-li změnit mapu, kliknutím na zelené tlačítko se znaménkem +mapu přiblížíte, kliknutím na zelené tlačítko se znaménkem – mapu oddálíte a kliknutím na zelené šipky přejdete na sousední mapy.


METAR-TAF: